sensor_id;sensor_type;location;lat;lon;timestamp;pressure;altitude;pressure_sealevel;temperature;humidity
75936;BME280;64614;32.062;34.834;2023-01-16T00:01:13;101209.06;;;20.86;51.41
75936;BME280;64614;32.062;34.834;2023-01-16T00:03:39;101198.13;;;20.91;50.71
75936;BME280;64614;32.062;34.834;2023-01-16T00:06:06;101204.09;;;20.93;51.00
75936;BME280;64614;32.062;34.834;2023-01-16T00:08:31;101197.00;;;20.92;51.22
75936;BME280;64614;32.062;34.834;2023-01-16T00:10:57;101190.50;;;20.88;51.05
75936;BME280;64614;32.062;34.834;2023-01-16T00:13:23;101197.81;;;20.93;50.46
75936;BME280;64614;32.062;34.834;2023-01-16T00:15:50;101193.44;;;20.92;50.83
75936;BME280;64614;32.062;34.834;2023-01-16T00:18:16;101186.09;;;20.92;50.55
75936;BME280;64614;32.062;34.834;2023-01-16T00:20:42;101191.56;;;20.92;51.18
75936;BME280;64614;32.062;34.834;2023-01-16T00:23:10;101182.84;;;20.90;51.01
75936;BME280;64614;32.062;34.834;2023-01-16T00:25:39;101176.50;;;20.95;51.23
75936;BME280;64614;32.062;34.834;2023-01-16T00:28:07;101177.03;;;20.97;50.84
75936;BME280;64614;32.062;34.834;2023-01-16T00:30:34;101170.22;;;20.94;50.76
75936;BME280;64614;32.062;34.834;2023-01-16T00:32:59;101180.03;;;20.95;50.83
75936;BME280;64614;32.062;34.834;2023-01-16T00:35:27;101165.13;;;20.88;51.12
75936;BME280;64614;32.062;34.834;2023-01-16T00:37:53;101169.41;;;20.94;50.61
75936;BME280;64614;32.062;34.834;2023-01-16T00:40:20;101172.94;;;20.94;50.61
75936;BME280;64614;32.062;34.834;2023-01-16T00:42:46;101176.53;;;20.90;51.23
75936;BME280;64614;32.062;34.834;2023-01-16T00:45:12;101164.53;;;20.91;50.86
75936;BME280;64614;32.062;34.834;2023-01-16T00:47:37;101170.44;;;20.98;50.69
75936;BME280;64614;32.062;34.834;2023-01-16T00:50:04;101170.75;;;20.96;51.81
75936;BME280;64614;32.062;34.834;2023-01-16T00:52:30;101181.13;;;20.94;51.99
75936;BME280;64614;32.062;34.834;2023-01-16T00:54:55;101182.28;;;20.88;52.03
75936;BME280;64614;32.062;34.834;2023-01-16T00:57:21;101175.19;;;20.92;51.80
75936;BME280;64614;32.062;34.834;2023-01-16T00:59:47;101178.13;;;20.96;51.35
75936;BME280;64614;32.062;34.834;2023-01-16T01:02:13;101178.94;;;20.96;51.80
75936;BME280;64614;32.062;34.834;2023-01-16T01:04:39;101166.16;;;20.92;51.34
75936;BME280;64614;32.062;34.834;2023-01-16T01:07:04;101170.56;;;20.88;51.57
75936;BME280;64614;32.062;34.834;2023-01-16T01:09:32;101169.19;;;20.90;51.37
75936;BME280;64614;32.062;34.834;2023-01-16T01:11:58;101168.63;;;20.93;51.82
75936;BME280;64614;32.062;34.834;2023-01-16T01:14:24;101157.16;;;20.91;51.46
75936;BME280;64614;32.062;34.834;2023-01-16T01:16:51;101162.03;;;20.94;50.98
75936;BME280;64614;32.062;34.834;2023-01-16T01:19:17;101161.22;;;20.94;51.70
75936;BME280;64614;32.062;34.834;2023-01-16T01:21:43;101162.03;;;20.94;51.28
75936;BME280;64614;32.062;34.834;2023-01-16T01:24:10;101153.56;;;20.96;51.09
75936;BME280;64614;32.062;34.834;2023-01-16T01:26:36;101147.28;;;20.95;50.96
75936;BME280;64614;32.062;34.834;2023-01-16T01:29:02;101145.13;;;20.92;51.04
75936;BME280;64614;32.062;34.834;2023-01-16T01:31:29;101151.09;;;20.94;50.76
75936;BME280;64614;32.062;34.834;2023-01-16T01:33:55;101149.19;;;20.95;50.75
75936;BME280;64614;32.062;34.834;2023-01-16T01:36:21;101137.34;;;21.05;50.36
75936;BME280;64614;32.062;34.834;2023-01-16T01:38:47;101137.34;;;21.05;50.08
75936;BME280;64614;32.062;34.834;2023-01-16T01:41:16;101139.81;;;21.06;50.17
75936;BME280;64614;32.062;34.834;2023-01-16T01:43:49;101142.19;;;21.13;50.35
75936;BME280;64614;32.062;34.834;2023-01-16T01:48:55;101130.97;;;20.90;51.00
75936;BME280;64614;32.062;34.834;2023-01-16T01:51:33;101133.13;;;20.93;50.93
75936;BME280;64614;32.062;34.834;2023-01-16T01:54:09;101133.91;;;20.94;50.74
75936;BME280;64614;32.062;34.834;2023-01-16T01:56:46;101138.75;;;21.02;50.71
75936;BME280;64614;32.062;34.834;2023-01-16T01:59:20;101130.75;;;21.11;50.21
75936;BME280;64614;32.062;34.834;2023-01-16T02:01:49;101127.66;;;20.93;50.76
75936;BME280;64614;32.062;34.834;2023-01-16T02:04:25;101131.50;;;20.92;51.04
75936;BME280;64614;32.062;34.834;2023-01-16T02:06:55;101124.66;;;20.90;50.82
75936;BME280;64614;32.062;34.834;2023-01-16T02:09:23;101123.47;;;21.01;50.54
75936;BME280;64614;32.062;34.834;2023-01-16T02:11:58;101131.75;;;20.91;50.81
75936;BME280;64614;32.062;34.834;2023-01-16T02:14:28;101126.38;;;20.86;50.50
75936;BME280;64614;32.062;34.834;2023-01-16T02:17:07;101111.44;;;20.73;50.60
75936;BME280;64614;32.062;34.834;2023-01-16T02:20:14;101117.88;;;20.87;50.30
75936;BME280;64614;32.062;34.834;2023-01-16T02:26:00;101120.38;;;20.84;50.48
75936;BME280;64614;32.062;34.834;2023-01-16T02:28:50;101117.41;;;20.80;50.47
75936;BME280;64614;32.062;34.834;2023-01-16T02:32:03;101115.25;;;20.77;51.32
75936;BME280;64614;32.062;34.834;2023-01-16T02:34:48;101106.56;;;20.75;51.10
75936;BME280;64614;32.062;34.834;2023-01-16T02:42:32;101118.00;;;20.72;50.69
75936;BME280;64614;32.062;34.834;2023-01-16T02:45:29;101110.63;;;20.77;50.59
75936;BME280;64614;32.062;34.834;2023-01-16T02:50:57;101119.63;;;20.73;50.59
75936;BME280;64614;32.062;34.834;2023-01-16T02:53:57;101108.19;;;20.71;50.43
75936;BME280;64614;32.062;34.834;2023-01-16T02:56:33;101115.53;;;20.75;50.61
75936;BME280;64614;32.062;34.834;2023-01-16T02:59:01;101114.44;;;20.76;50.39
75936;BME280;64614;32.062;34.834;2023-01-16T03:01:27;101107.88;;;20.72;50.59
75936;BME280;64614;32.062;34.834;2023-01-16T03:06:43;101118.47;;;20.84;50.53
75936;BME280;64614;32.062;34.834;2023-01-16T03:09:34;101123.00;;;20.94;49.79
75936;BME280;64614;32.062;34.834;2023-01-16T03:12:39;101115.69;;;20.89;49.86
75936;BME280;64614;32.062;34.834;2023-01-16T03:15:10;101124.97;;;20.88;49.99
75936;BME280;64614;32.062;34.834;2023-01-16T03:23:06;101132.06;;;20.89;50.07
75936;BME280;64614;32.062;34.834;2023-01-16T03:28:29;101136.44;;;20.85;50.57
75936;BME280;64614;32.062;34.834;2023-01-16T03:31:29;101134.94;;;20.69;50.45
75936;BME280;64614;32.062;34.834;2023-01-16T03:37:20;101137.09;;;20.72;50.25
75936;BME280;64614;32.062;34.834;2023-01-16T03:39:26;101139.91;;;20.66;50.16
75936;BME280;64614;32.062;34.834;2023-01-16T03:41:58;101133.94;;;20.59;50.11
75936;BME280;64614;32.062;34.834;2023-01-16T03:44:28;101139.38;;;20.59;49.95
75936;BME280;64614;32.062;34.834;2023-01-16T03:46:56;101141.59;;;20.57;49.95
75936;BME280;64614;32.062;34.834;2023-01-16T03:49:31;101141.50;;;20.67;49.86
75936;BME280;64614;32.062;34.834;2023-01-16T03:52:02;101148.34;;;20.65;49.66
75936;BME280;64614;32.062;34.834;2023-01-16T03:54:36;101143.47;;;20.62;50.42
75936;BME280;64614;32.062;34.834;2023-01-16T03:57:09;101140.78;;;20.57;50.34
75936;BME280;64614;32.062;34.834;2023-01-16T03:59:37;101147.34;;;20.56;50.40
75936;BME280;64614;32.062;34.834;2023-01-16T04:02:06;101148.97;;;20.57;50.63
75936;BME280;64614;32.062;34.834;2023-01-16T04:04:41;101150.03;;;20.61;50.00
75936;BME280;64614;32.062;34.834;2023-01-16T04:07:31;101143.75;;;20.60;50.19
75936;BME280;64614;32.062;34.834;2023-01-16T04:10:07;101139.97;;;20.56;50.08
75936;BME280;64614;32.062;34.834;2023-01-16T04:12:37;101146.47;;;20.60;50.04
75936;BME280;64614;32.062;34.834;2023-01-16T04:15:07;101144.84;;;20.59;50.31
75936;BME280;64614;32.062;34.834;2023-01-16T04:17:35;101151.44;;;20.53;51.79
75936;BME280;64614;32.062;34.834;2023-01-16T04:20:02;101150.06;;;20.56;51.92
75936;BME280;64614;32.062;34.834;2023-01-16T04:22:29;101144.91;;;20.54;52.18
75936;BME280;64614;32.062;34.834;2023-01-16T04:24:57;101143.56;;;20.51;53.18
75936;BME280;64614;32.062;34.834;2023-01-16T04:27:23;101147.63;;;20.54;53.71
75936;BME280;64614;32.062;34.834;2023-01-16T04:29:49;101152.28;;;20.54;50.02
75936;BME280;64614;32.062;34.834;2023-01-16T04:32:15;101160.41;;;20.59;50.61
75936;BME280;64614;32.062;34.834;2023-01-16T04:34:41;101160.81;;;20.42;48.30
75936;BME280;64614;32.062;34.834;2023-01-16T04:37:07;101148.88;;;20.32;48.03
75936;BME280;64614;32.062;34.834;2023-01-16T04:39:33;101158.69;;;20.33;47.51
75936;BME280;64614;32.062;34.834;2023-01-16T04:41:58;101154.94;;;20.24;48.05
75936;BME280;64614;32.062;34.834;2023-01-16T04:44:24;101150.88;;;20.22;47.71
75936;BME280;64614;32.062;34.834;2023-01-16T04:46:50;101148.19;;;20.16;47.48
75936;BME280;64614;32.062;34.834;2023-01-16T04:49:16;101158.25;;;20.16;47.57
75936;BME280;64614;32.062;34.834;2023-01-16T04:51:42;101148.75;;;20.13;47.72
75936;BME280;64614;32.062;34.834;2023-01-16T04:54:13;101153.81;;;20.30;48.53
75936;BME280;64614;32.062;34.834;2023-01-16T04:56:40;101149.63;;;20.43;49.19
75936;BME280;64614;32.062;34.834;2023-01-16T04:59:08;101140.38;;;20.39;47.77
75936;BME280;64614;32.062;34.834;2023-01-16T05:01:33;101152.88;;;20.45;47.64
75936;BME280;64614;32.062;34.834;2023-01-16T05:04:09;101154.72;;;20.55;46.26
75936;BME280;64614;32.062;34.834;2023-01-16T05:06:37;101159.84;;;20.62;46.68
75936;BME280;64614;32.062;34.834;2023-01-16T05:09:04;101141.38;;;20.54;46.90
75936;BME280;64614;32.062;34.834;2023-01-16T05:11:30;101138.13;;;20.46;46.27
75936;BME280;64614;32.062;34.834;2023-01-16T05:13:59;101166.66;;;20.64;45.88
75936;BME280;64614;32.062;34.834;2023-01-16T05:16:25;101152.75;;;20.61;46.12
75936;BME280;64614;32.062;34.834;2023-01-16T05:18:51;101148.66;;;20.63;46.01
75936;BME280;64614;32.062;34.834;2023-01-16T05:21:17;101158.13;;;20.71;45.62
75936;BME280;64614;32.062;34.834;2023-01-16T05:23:43;101150.81;;;20.66;45.39
75936;BME280;64614;32.062;34.834;2023-01-16T05:26:08;101165.69;;;20.85;45.51
75936;BME280;64614;32.062;34.834;2023-01-16T05:28:35;101152.38;;;20.73;46.19
75936;BME280;64614;32.062;34.834;2023-01-16T05:31:02;101161.56;;;20.87;47.11
75936;BME280;64614;32.062;34.834;2023-01-16T05:33:28;101179.41;;;21.04;47.19
75936;BME280;64614;32.062;34.834;2023-01-16T05:35:54;101177.31;;;20.95;47.98
75936;BME280;64614;32.062;34.834;2023-01-16T05:38:20;101169.03;;;21.06;47.84
75936;BME280;64614;32.062;34.834;2023-01-16T05:40:46;101186.34;;;20.96;48.23
75936;BME280;64614;32.062;34.834;2023-01-16T05:43:12;101186.19;;;20.82;48.59
75936;BME280;64614;32.062;34.834;2023-01-16T05:45:38;101180.72;;;20.82;48.67
75936;BME280;64614;32.062;34.834;2023-01-16T05:48:04;101190.53;;;20.83;48.59
75936;BME280;64614;32.062;34.834;2023-01-16T05:50:30;101194.63;;;20.86;48.41
75936;BME280;64614;32.062;34.834;2023-01-16T05:52:56;101199.25;;;20.85;48.85
75936;BME280;64614;32.062;34.834;2023-01-16T05:55:22;101190.97;;;20.95;48.69
75936;BME280;64614;32.062;34.834;2023-01-16T05:57:47;101189.13;;;21.15;48.07
75936;BME280;64614;32.062;34.834;2023-01-16T06:00:13;101193.63;;;21.30;47.58
75936;BME280;64614;32.062;34.834;2023-01-16T06:02:39;101189.16;;;21.39;47.26
75936;BME280;64614;32.062;34.834;2023-01-16T06:05:05;101184.31;;;21.60;46.48
75936;BME280;64614;32.062;34.834;2023-01-16T06:07:31;101191.78;;;21.74;46.71
75936;BME280;64614;32.062;34.834;2023-01-16T06:09:57;101195.34;;;21.74;46.34
75936;BME280;64614;32.062;34.834;2023-01-16T06:12:23;101182.88;;;21.87;46.16
75936;BME280;64614;32.062;34.834;2023-01-16T06:14:48;101188.56;;;21.91;45.77
75936;BME280;64614;32.062;34.834;2023-01-16T06:17:14;101184.94;;;21.96;46.19
75936;BME280;64614;32.062;34.834;2023-01-16T06:19:44;101194.78;;;21.97;45.88
75936;BME280;64614;32.062;34.834;2023-01-16T06:22:10;101194.47;;;22.17;45.86
75936;BME280;64614;32.062;34.834;2023-01-16T06:24:36;101200.47;;;22.19;45.67
75936;BME280;64614;32.062;34.834;2023-01-16T06:27:01;101188.38;;;22.26;45.81
75936;BME280;64614;32.062;34.834;2023-01-16T06:29:27;101195.44;;;22.27;45.60
75936;BME280;64614;32.062;34.834;2023-01-16T06:31:53;101196.06;;;22.23;45.67
75936;BME280;64614;32.062;34.834;2023-01-16T06:34:18;101192.25;;;22.19;45.88
75936;BME280;64614;32.062;34.834;2023-01-16T06:36:44;101193.84;;;22.26;45.14
75936;BME280;64614;32.062;34.834;2023-01-16T06:39:13;101197.28;;;22.31;45.66
75936;BME280;64614;32.062;34.834;2023-01-16T06:41:39;101186.66;;;22.30;45.23
75936;BME280;64614;32.062;34.834;2023-01-16T06:44:04;101187.00;;;22.23;45.77
75936;BME280;64614;32.062;34.834;2023-01-16T06:46:30;101190.56;;;22.23;45.82
75936;BME280;64614;32.062;34.834;2023-01-16T06:48:56;101189.69;;;22.28;45.65
75936;BME280;64614;32.062;34.834;2023-01-16T06:51:22;101196.41;;;22.17;46.09
75936;BME280;64614;32.062;34.834;2023-01-16T06:53:47;101205.06;;;22.05;46.48
75936;BME280;64614;32.062;34.834;2023-01-16T06:56:13;101182.06;;;22.06;46.36
75936;BME280;64614;32.062;34.834;2023-01-16T06:58:38;101194.16;;;22.00;46.35
75936;BME280;64614;32.062;34.834;2023-01-16T07:01:04;101193.59;;;22.03;46.65
75936;BME280;64614;32.062;34.834;2023-01-16T07:03:30;101179.25;;;21.92;46.19
75936;BME280;64614;32.062;34.834;2023-01-16T07:05:56;101188.25;;;21.92;46.76
75936;BME280;64614;32.062;34.834;2023-01-16T07:08:21;101198.63;;;21.96;46.62
75936;BME280;64614;32.062;34.834;2023-01-16T07:10:47;101195.88;;;21.96;46.38
75936;BME280;64614;32.062;34.834;2023-01-16T07:13:13;101193.72;;;21.92;46.05
75936;BME280;64614;32.062;34.834;2023-01-16T07:15:42;101206.38;;;21.88;45.90
75936;BME280;64614;32.062;34.834;2023-01-16T07:18:29;101202.22;;;21.91;46.47
75936;BME280;64614;32.062;34.834;2023-01-16T07:21:13;101194.03;;;21.91;46.13
75936;BME280;64614;32.062;34.834;2023-01-16T07:24:06;101198.09;;;21.94;46.03
75936;BME280;64614;32.062;34.834;2023-01-16T07:26:36;101195.44;;;21.88;46.39
75936;BME280;64614;32.062;34.834;2023-01-16T07:29:03;101211.00;;;21.88;46.68
75936;BME280;64614;32.062;34.834;2023-01-16T07:31:30;101196.19;;;21.94;46.26
75936;BME280;64614;32.062;34.834;2023-01-16T07:33:57;101207.41;;;21.92;46.30
75936;BME280;64614;32.062;34.834;2023-01-16T07:36:23;101208.22;;;21.93;46.85
75936;BME280;64614;32.062;34.834;2023-01-16T07:38:49;101213.69;;;21.93;46.18
75936;BME280;64614;32.062;34.834;2023-01-16T07:41:14;101210.66;;;21.95;46.68
75936;BME280;64614;32.062;34.834;2023-01-16T07:43:40;101209.25;;;21.97;46.21
75936;BME280;64614;32.062;34.834;2023-01-16T07:46:06;101215.25;;;21.99;46.00
75936;BME280;64614;32.062;34.834;2023-01-16T07:48:32;101215.59;;;21.92;46.05
75936;BME280;64614;32.062;34.834;2023-01-16T07:50:58;101213.97;;;21.91;46.62
75936;BME280;64614;32.062;34.834;2023-01-16T07:53:27;101203.56;;;21.94;46.36
75936;BME280;64614;32.062;34.834;2023-01-16T07:55:55;101203.03;;;21.91;46.12
75936;BME280;64614;32.062;34.834;2023-01-16T07:58:21;101210.22;;;21.87;46.25
75936;BME280;64614;32.062;34.834;2023-01-16T08:00:47;101203.63;;;21.88;46.83
75936;BME280;64614;32.062;34.834;2023-01-16T08:03:14;101210.25;;;21.82;46.71
75936;BME280;64614;32.062;34.834;2023-01-16T08:05:41;101202.13;;;21.77;46.38
75936;BME280;64614;32.062;34.834;2023-01-16T08:08:10;101196.44;;;21.73;46.81
75936;BME280;64614;32.062;34.834;2023-01-16T08:10:36;101188.78;;;21.75;46.69
75936;BME280;64614;32.062;34.834;2023-01-16T08:13:02;101194.69;;;21.83;46.20
75936;BME280;64614;32.062;34.834;2023-01-16T08:15:28;101190.91;;;21.79;46.96
75936;BME280;64614;32.062;34.834;2023-01-16T08:17:53;101191.50;;;21.75;46.45
75936;BME280;64614;32.062;34.834;2023-01-16T08:20:19;101190.41;;;21.77;46.46
75936;BME280;64614;32.062;34.834;2023-01-16T08:22:46;101197.25;;;21.74;47.03
75936;BME280;64614;32.062;34.834;2023-01-16T08:25:13;101199.94;;;21.79;46.49
75936;BME280;64614;32.062;34.834;2023-01-16T08:27:39;101189.31;;;21.97;46.10
75936;BME280;64614;32.062;34.834;2023-01-16T08:30:06;101180.72;;;21.84;46.18
75936;BME280;64614;32.062;34.834;2023-01-16T08:32:32;101187.91;;;21.80;46.39
75936;BME280;64614;32.062;34.834;2023-01-16T08:34:58;101191.84;;;21.69;46.46
75936;BME280;64614;32.062;34.834;2023-01-16T08:37:24;101180.34;;;21.72;46.56
75936;BME280;64614;32.062;34.834;2023-01-16T08:39:49;101166.16;;;21.70;46.70
75936;BME280;64614;32.062;34.834;2023-01-16T08:42:15;101179.75;;;21.75;46.78
75936;BME280;64614;32.062;34.834;2023-01-16T08:44:59;101175.44;;;21.69;46.85
75936;BME280;64614;32.062;34.834;2023-01-16T08:47:43;101173.28;;;21.66;46.49
75936;BME280;64614;32.062;34.834;2023-01-16T08:50:27;101176.84;;;21.66;46.78
75936;BME280;64614;32.062;34.834;2023-01-16T08:53:11;101166.69;;;21.72;46.88
75936;BME280;64614;32.062;34.834;2023-01-16T08:55:37;101169.19;;;21.68;46.48
75936;BME280;64614;32.062;34.834;2023-01-16T08:58:05;101164.59;;;21.64;46.67
75936;BME280;64614;32.062;34.834;2023-01-16T09:00:30;101160.47;;;21.66;46.73
75936;BME280;64614;32.062;34.834;2023-01-16T09:02:56;101164.28;;;21.65;46.79
75936;BME280;64614;32.062;34.834;2023-01-16T09:05:25;101155.78;;;21.67;46.53
75936;BME280;64614;32.062;34.834;2023-01-16T09:07:51;101144.84;;;21.67;46.42
75936;BME280;64614;32.062;34.834;2023-01-16T09:10:17;101152.63;;;21.79;46.46
75936;BME280;64614;32.062;34.834;2023-01-16T09:12:43;101131.72;;;21.69;45.99
75936;BME280;64614;32.062;34.834;2023-01-16T09:15:27;101139.78;;;21.79;45.99
75936;BME280;64614;32.062;34.834;2023-01-16T09:17:53;101139.19;;;21.82;45.67
75936;BME280;64614;32.062;34.834;2023-01-16T09:20:19;101134.16;;;21.70;46.00
75936;BME280;64614;32.062;34.834;2023-01-16T09:22:45;101137.41;;;21.72;46.14
75936;BME280;64614;32.062;34.834;2023-01-16T09:25:10;101123.28;;;21.65;45.79
75936;BME280;64614;32.062;34.834;2023-01-16T09:27:36;101123.06;;;21.62;46.26
75936;BME280;64614;32.062;34.834;2023-01-16T09:30:03;101127.34;;;21.68;46.13
75936;BME280;64614;32.062;34.834;2023-01-16T09:32:29;101119.69;;;21.70;46.00
75936;BME280;64614;32.062;34.834;2023-01-16T09:34:55;101114.56;;;21.82;45.78
75936;BME280;64614;32.062;34.834;2023-01-16T09:37:21;101119.53;;;21.80;45.84
75936;BME280;64614;32.062;34.834;2023-01-16T09:39:47;101102.66;;;21.73;45.82
75936;BME280;64614;32.062;34.834;2023-01-16T09:42:37;101108.31;;;21.82;45.16
75936;BME280;64614;32.062;34.834;2023-01-16T09:45:42;101098.78;;;21.79;45.68
75936;BME280;64614;32.062;34.834;2023-01-16T09:48:30;101101.50;;;21.79;45.31
75936;BME280;64614;32.062;34.834;2023-01-16T09:51:05;101084.59;;;21.77;45.29
75936;BME280;64614;32.062;34.834;2023-01-16T09:56:30;101082.91;;;21.81;45.23
75936;BME280;64614;32.062;34.834;2023-01-16T09:59:19;101084.38;;;21.73;45.36
75936;BME280;64614;32.062;34.834;2023-01-16T10:01:53;101076.47;;;21.72;45.12
75936;BME280;64614;32.062;34.834;2023-01-16T10:04:23;101076.47;;;21.72;45.64
75936;BME280;64614;32.062;34.834;2023-01-16T10:07:03;101072.56;;;21.59;45.57
75936;BME280;64614;32.062;34.834;2023-01-16T10:12:37;101065.69;;;21.56;43.50
75936;BME280;64614;32.062;34.834;2023-01-16T10:15:20;101064.69;;;21.52;42.63
75936;BME280;64614;32.062;34.834;2023-01-16T10:26:08;101046.13;;;21.49;44.72
75936;BME280;64614;32.062;34.834;2023-01-16T10:31:27;101032.53;;;21.44;44.08
75936;BME280;64614;32.062;34.834;2023-01-16T10:34:19;101038.44;;;21.51;43.30
75936;BME280;64614;32.062;34.834;2023-01-16T10:36:51;101020.78;;;21.43;44.43
75936;BME280;64614;32.062;34.834;2023-01-16T10:39:20;101013.84;;;21.51;43.99
75936;BME280;64614;32.062;34.834;2023-01-16T10:41:51;101020.22;;;21.47;44.14
75936;BME280;64614;32.062;34.834;2023-01-16T10:44:40;101016.00;;;21.54;44.20
75936;BME280;64614;32.062;34.834;2023-01-16T10:47:30;101016.59;;;21.51;43.82
75936;BME280;64614;32.062;34.834;2023-01-16T10:50:17;101008.69;;;21.50;44.30
75936;BME280;64614;32.062;34.834;2023-01-16T10:52:45;101007.19;;;21.63;44.47
75936;BME280;64614;32.062;34.834;2023-01-16T10:55:13;101012.13;;;21.60;44.60
75936;BME280;64614;32.062;34.834;2023-01-16T10:57:45;100998.19;;;21.57;44.94
75936;BME280;64614;32.062;34.834;2023-01-16T11:00:24;101016.91;;;21.69;44.51
75936;BME280;64614;32.062;34.834;2023-01-16T11:02:58;101005.00;;;21.40;45.33
75936;BME280;64614;32.062;34.834;2023-01-16T11:07:56;101000.19;;;21.32;45.24
75936;BME280;64614;32.062;34.834;2023-01-16T11:20:09;100979.94;;;21.14;45.76
75936;BME280;64614;32.062;34.834;2023-01-16T11:25:35;100976.56;;;21.22;45.44
75936;BME280;64614;32.062;34.834;2023-01-16T11:28:03;101004.25;;;21.35;45.80
75936;BME280;64614;32.062;34.834;2023-01-16T11:30:37;100998.13;;;21.43;45.74
75936;BME280;64614;32.062;34.834;2023-01-16T11:33:15;100993.78;;;21.42;45.44
75936;BME280;64614;32.062;34.834;2023-01-16T11:35:51;100992.28;;;21.31;45.83
75936;BME280;64614;32.062;34.834;2023-01-16T11:38:19;100989.41;;;21.22;45.90
75936;BME280;64614;32.062;34.834;2023-01-16T11:40:46;100970.06;;;21.18;45.64
75936;BME280;64614;32.062;34.834;2023-01-16T11:43:18;100962.22;;;21.11;45.43
75936;BME280;64614;32.062;34.834;2023-01-16T11:46:55;100975.25;;;20.76;46.59
75936;BME280;64614;32.062;34.834;2023-01-16T11:48:55;100983.84;;;20.89;46.75
75936;BME280;64614;32.062;34.834;2023-01-16T11:51:36;101012.81;;;21.28;46.23
75936;BME280;64614;32.062;34.834;2023-01-16T11:54:05;101011.19;;;21.27;46.53
75936;BME280;64614;32.062;34.834;2023-01-16T12:10:29;101019.16;;;21.23;46.74
75936;BME280;64614;32.062;34.834;2023-01-16T12:13:08;101017.09;;;21.34;46.55
75936;BME280;64614;32.062;34.834;2023-01-16T12:51:02;101050.47;;;21.74;45.59
75936;BME280;64614;32.062;34.834;2023-01-16T12:59:18;101057.13;;;21.68;45.96
75936;BME280;64614;32.062;34.834;2023-01-16T13:01:48;101038.03;;;21.63;45.87
75936;BME280;64614;32.062;34.834;2023-01-16T13:04:31;101044.94;;;21.55;45.99
75936;BME280;64614;32.062;34.834;2023-01-16T13:07:00;101052.97;;;21.71;45.56
75936;BME280;64614;32.062;34.834;2023-01-16T13:09:36;101075.13;;;21.88;45.04
75936;BME280;64614;32.062;34.834;2023-01-16T13:12:18;101080.16;;;21.81;45.80
75936;BME280;64614;32.062;34.834;2023-01-16T13:15:22;101051.34;;;21.70;45.26
75936;BME280;64614;32.062;34.834;2023-01-16T13:18:00;101052.31;;;21.79;45.31
75936;BME280;64614;32.062;34.834;2023-01-16T13:20:29;101068.63;;;21.84;45.16
75936;BME280;64614;32.062;34.834;2023-01-16T13:23:01;101045.78;;;21.75;45.51
75936;BME280;64614;32.062;34.834;2023-01-16T13:30:41;101073.50;;;21.87;45.45
75936;BME280;64614;32.062;34.834;2023-01-16T13:33:15;101053.84;;;21.85;45.28
75936;BME280;64614;32.062;34.834;2023-01-16T13:38:53;101093.81;;;22.00;45.19
75936;BME280;64614;32.062;34.834;2023-01-16T13:41:46;101080.16;;;21.81;45.76
75936;BME280;64614;32.062;34.834;2023-01-16T13:47:04;101081.69;;;21.87;45.47
75936;BME280;64614;32.062;34.834;2023-01-16T13:49:34;101089.06;;;21.87;48.93
75936;BME280;64614;32.062;34.834;2023-01-16T13:52:02;101077.66;;;21.85;46.32
75936;BME280;64614;32.062;34.834;2023-01-16T13:54:44;101075.81;;;21.80;45.83
75936;BME280;64614;32.062;34.834;2023-01-16T13:57:15;101093.44;;;21.69;45.33
75936;BME280;64614;32.062;34.834;2023-01-16T13:59:52;101084.56;;;21.15;42.47
75936;BME280;64614;32.062;34.834;2023-01-16T14:05:23;101109.50;;;20.78;43.41
75936;BME280;64614;32.062;34.834;2023-01-16T14:10:44;101106.22;;;21.30;44.54
75936;BME280;64614;32.062;34.834;2023-01-16T14:24:04;101106.25;;;21.25;46.62
75936;BME280;64614;32.062;34.834;2023-01-16T14:38:57;101127.00;;;21.26;47.07
75936;BME280;64614;32.062;34.834;2023-01-16T14:41:29;101137.06;;;21.31;47.07
75936;BME280;64614;32.062;34.834;2023-01-16T14:44:18;101123.72;;;21.29;47.24
75936;BME280;64614;32.062;34.834;2023-01-16T14:55:24;101157.28;;;21.29;47.40
75936;BME280;64614;32.062;34.834;2023-01-16T14:57:50;101148.06;;;21.25;47.59
75936;BME280;64614;32.062;34.834;2023-01-16T15:00:18;101149.69;;;21.26;47.54
75936;BME280;64614;32.062;34.834;2023-01-16T15:02:53;101154.56;;;21.29;47.55
75936;BME280;64614;32.062;34.834;2023-01-16T15:05:32;101147.19;;;21.30;47.53
75936;BME280;64614;32.062;34.834;2023-01-16T15:08:30;101154.63;;;21.24;45.83
75936;BME280;64614;32.062;34.834;2023-01-16T15:11:01;101161.50;;;21.22;47.65
75936;BME280;64614;32.062;34.834;2023-01-16T15:14:17;101156.31;;;21.20;47.60
75936;BME280;64614;32.062;34.834;2023-01-16T15:17:09;101168.81;;;21.26;47.94
75936;BME280;64614;32.062;34.834;2023-01-16T15:19:57;101151.44;;;21.17;48.35
75936;BME280;64614;32.062;34.834;2023-01-16T15:22:44;101162.06;;;21.19;48.02
75936;BME280;64614;32.062;34.834;2023-01-16T15:27:50;101176.31;;;21.16;48.18
75936;BME280;64614;32.062;34.834;2023-01-16T15:30:17;101182.63;;;21.11;48.38
75936;BME280;64614;32.062;34.834;2023-01-16T15:33:00;101188.09;;;21.11;48.33
75936;BME280;64614;32.062;34.834;2023-01-16T15:35:44;101193.19;;;21.18;48.13
75936;BME280;64614;32.062;34.834;2023-01-16T15:38:19;101188.56;;;21.18;48.03
75936;BME280;64614;32.062;34.834;2023-01-16T15:40:50;101184.56;;;21.35;47.53
75936;BME280;64614;32.062;34.834;2023-01-16T15:43:16;101197.88;;;21.17;48.31
75936;BME280;64614;32.062;34.834;2023-01-16T15:46:09;101201.47;;;21.12;48.12
75936;BME280;64614;32.062;34.834;2023-01-16T15:51:27;101217.63;;;21.09;48.41